sensor_id;sensor_type;location;lat;lon;timestamp;pressure;altitude;pressure_sealevel;temperature;humidity
76853;BME280;65825;52.232;10.566;2024-02-14T00:01:54;100914.44;;;8.42;63.35
76853;BME280;65825;52.232;10.566;2024-02-14T00:04:20;100913.84;;;8.72;62.42
76853;BME280;65825;52.232;10.566;2024-02-14T00:06:46;100917.22;;;8.34;63.49
76853;BME280;65825;52.232;10.566;2024-02-14T00:09:11;100904.19;;;8.72;62.71
76853;BME280;65825;52.232;10.566;2024-02-14T00:11:37;100892.81;;;8.70;62.63
76853;BME280;65825;52.232;10.566;2024-02-14T00:14:02;100893.69;;;8.71;62.95
76853;BME280;65825;52.232;10.566;2024-02-14T00:16:28;100900.38;;;8.87;62.13
76853;BME280;65825;52.232;10.566;2024-02-14T00:18:56;100894.34;;;8.80;62.93
76853;BME280;65825;52.232;10.566;2024-02-14T00:21:22;100896.38;;;8.68;63.50
76853;BME280;65825;52.232;10.566;2024-02-14T00:23:47;100902.63;;;8.64;63.25
76853;BME280;65825;52.232;10.566;2024-02-14T00:26:13;100892.53;;;8.84;63.08
76853;BME280;65825;52.232;10.566;2024-02-14T00:28:38;100888.94;;;8.86;62.61
76853;BME280;65825;52.232;10.566;2024-02-14T00:31:03;100877.06;;;8.69;63.18
76853;BME280;65825;52.232;10.566;2024-02-14T00:33:28;100879.78;;;8.64;63.75
76853;BME280;65825;52.232;10.566;2024-02-14T00:35:54;100873.44;;;8.74;63.01
76853;BME280;65825;52.232;10.566;2024-02-14T00:38:19;100880.38;;;8.78;62.99
76853;BME280;65825;52.232;10.566;2024-02-14T00:40:44;100873.84;;;8.96;62.73
76853;BME280;65825;52.232;10.566;2024-02-14T00:43:10;100869.13;;;9.10;61.95
76853;BME280;65825;52.232;10.566;2024-02-14T00:45:35;100877.44;;;8.92;63.11
76853;BME280;65825;52.232;10.566;2024-02-14T00:48:03;100865.41;;;8.80;63.76
76853;BME280;65825;52.232;10.566;2024-02-14T00:50:29;100862.31;;;8.60;64.05
76853;BME280;65825;52.232;10.566;2024-02-14T00:52:54;100860.94;;;8.84;63.59
76853;BME280;65825;52.232;10.566;2024-02-14T00:55:20;100868.03;;;8.80;63.25
76853;BME280;65825;52.232;10.566;2024-02-14T00:57:45;100867.03;;;8.46;64.01
76853;BME280;65825;52.232;10.566;2024-02-14T01:00:11;100860.41;;;8.68;63.90
76853;BME280;65825;52.232;10.566;2024-02-14T01:02:36;100867.03;;;8.87;63.35
76853;BME280;65825;52.232;10.566;2024-02-14T01:05:02;100870.44;;;8.51;63.62
76853;BME280;65825;52.232;10.566;2024-02-14T01:07:29;100857.97;;;8.99;63.23
76853;BME280;65825;52.232;10.566;2024-02-14T01:09:54;100861.31;;;9.07;62.62
76853;BME280;65825;52.232;10.566;2024-02-14T01:12:20;100861.03;;;8.79;63.95
76853;BME280;65825;52.232;10.566;2024-02-14T01:14:45;100857.16;;;8.56;63.88
76853;BME280;65825;52.232;10.566;2024-02-14T01:17:10;100859.13;;;8.87;64.06
76853;BME280;65825;52.232;10.566;2024-02-14T01:19:36;100855.69;;;9.22;63.08
76853;BME280;65825;52.232;10.566;2024-02-14T01:22:01;100848.19;;;9.42;63.03
76853;BME280;65825;52.232;10.566;2024-02-14T01:24:27;100849.97;;;9.03;64.15
76853;BME280;65825;52.232;10.566;2024-02-14T01:26:55;100844.44;;;8.77;64.63
76853;BME280;65825;52.232;10.566;2024-02-14T01:29:21;100837.53;;;8.70;65.01
76853;BME280;65825;52.232;10.566;2024-02-14T01:31:47;100836.16;;;8.53;65.29
76853;BME280;65825;52.232;10.566;2024-02-14T01:34:12;100835.81;;;8.69;65.39
76853;BME280;65825;52.232;10.566;2024-02-14T01:36:37;100831.91;;;8.87;64.77
76853;BME280;65825;52.232;10.566;2024-02-14T01:39:04;100821.44;;;8.84;64.96
76853;BME280;65825;52.232;10.566;2024-02-14T01:41:32;100820.63;;;8.82;65.17
76853;BME280;65825;52.232;10.566;2024-02-14T01:43:58;100819.66;;;8.86;64.99
76853;BME280;65825;52.232;10.566;2024-02-14T01:46:24;100811.50;;;8.96;64.26
76853;BME280;65825;52.232;10.566;2024-02-14T01:48:49;100814.13;;;8.96;64.35
76853;BME280;65825;52.232;10.566;2024-02-14T01:51:16;100806.03;;;8.28;66.56
76853;BME280;65825;52.232;10.566;2024-02-14T01:53:44;100807.25;;;8.09;66.11
76853;BME280;65825;52.232;10.566;2024-02-14T01:56:10;100801.75;;;8.22;66.30
76853;BME280;65825;52.232;10.566;2024-02-14T01:58:36;100795.34;;;8.35;65.46
76853;BME280;65825;52.232;10.566;2024-02-14T02:01:03;100801.47;;;7.90;67.49
76853;BME280;65825;52.232;10.566;2024-02-14T02:03:29;100800.94;;;8.17;66.66
76853;BME280;65825;52.232;10.566;2024-02-14T02:05:55;100797.44;;;8.17;66.01
76853;BME280;65825;52.232;10.566;2024-02-14T02:08:21;100796.19;;;8.37;65.83
76853;BME280;65825;52.232;10.566;2024-02-14T02:10:46;100795.34;;;8.35;65.21
76853;BME280;65825;52.232;10.566;2024-02-14T02:13:12;100791.03;;;8.31;65.67
76853;BME280;65825;52.232;10.566;2024-02-14T02:15:37;100799.72;;;8.36;66.04
76853;BME280;65825;52.232;10.566;2024-02-14T02:18:04;100784.59;;;8.46;65.09
76853;BME280;65825;52.232;10.566;2024-02-14T02:20:31;100783.91;;;7.92;67.17
76853;BME280;65825;52.232;10.566;2024-02-14T02:22:57;100788.75;;;8.13;66.89
76853;BME280;65825;52.232;10.566;2024-02-14T02:25:22;100775.44;;;8.24;66.12
76853;BME280;65825;52.232;10.566;2024-02-14T02:27:51;100770.13;;;8.25;66.70
76853;BME280;65825;52.232;10.566;2024-02-14T02:30:16;100775.44;;;8.24;66.47
76853;BME280;65825;52.232;10.566;2024-02-14T02:32:42;100771.22;;;8.14;66.22
76853;BME280;65825;52.232;10.566;2024-02-14T02:35:08;100773.38;;;8.38;66.36
76853;BME280;65825;52.232;10.566;2024-02-14T02:37:35;100770.03;;;8.30;65.88
76853;BME280;65825;52.232;10.566;2024-02-14T02:40:00;100760.47;;;8.26;66.63
76853;BME280;65825;52.232;10.566;2024-02-14T02:42:25;100762.09;;;8.33;66.58
76853;BME280;65825;52.232;10.566;2024-02-14T02:44:51;100750.84;;;8.25;67.42
76853;BME280;65825;52.232;10.566;2024-02-14T02:47:16;100745.13;;;8.03;67.88
76853;BME280;65825;52.232;10.566;2024-02-14T02:49:45;100746.19;;;8.37;67.04
76853;BME280;65825;52.232;10.566;2024-02-14T02:52:11;100740.75;;;8.46;66.27
76853;BME280;65825;52.232;10.566;2024-02-14T02:54:37;100760.13;;;8.42;66.36
76853;BME280;65825;52.232;10.566;2024-02-14T02:57:09;100761.22;;;8.32;67.10
76853;BME280;65825;52.232;10.566;2024-02-14T02:59:35;100758.41;;;8.40;66.80
76853;BME280;65825;52.232;10.566;2024-02-14T03:02:01;100748.22;;;8.64;66.73
76853;BME280;65825;52.232;10.566;2024-02-14T03:04:27;100753.91;;;8.46;67.33
76853;BME280;65825;52.232;10.566;2024-02-14T03:06:52;100757.47;;;8.42;66.58
76853;BME280;65825;52.232;10.566;2024-02-14T03:09:17;100751.13;;;8.52;67.49
76853;BME280;65825;52.232;10.566;2024-02-14T03:11:46;100748.78;;;8.77;67.39
76853;BME280;65825;52.232;10.566;2024-02-14T03:14:15;100745.97;;;8.86;67.32
76853;BME280;65825;52.232;10.566;2024-02-14T03:16:40;100748.13;;;8.69;68.72
76853;BME280;65825;52.232;10.566;2024-02-14T03:19:06;100744.28;;;8.82;68.34
76853;BME280;65825;52.232;10.566;2024-02-14T03:21:31;100737.88;;;8.93;69.74
76853;BME280;65825;52.232;10.566;2024-02-14T03:23:58;100731.84;;;8.88;69.42
76853;BME280;65825;52.232;10.566;2024-02-14T03:26:23;100728.94;;;8.99;69.65
76853;BME280;65825;52.232;10.566;2024-02-14T03:28:48;100720.97;;;9.02;70.03
76853;BME280;65825;52.232;10.566;2024-02-14T03:31:14;100728.56;;;8.79;71.22
76853;BME280;65825;52.232;10.566;2024-02-14T03:33:41;100714.66;;;9.09;70.44
76853;BME280;65825;52.232;10.566;2024-02-14T03:36:06;100722.69;;;9.04;71.05
76853;BME280;65825;52.232;10.566;2024-02-14T03:38:34;100718.19;;;8.73;72.21
76853;BME280;65825;52.232;10.566;2024-02-14T03:41:00;100714.41;;;8.84;71.91
76853;BME280;65825;52.232;10.566;2024-02-14T03:43:25;100706.06;;;9.02;71.40
76853;BME280;65825;52.232;10.566;2024-02-14T03:45:50;100702.75;;;8.94;71.69
76853;BME280;65825;52.232;10.566;2024-02-14T03:48:19;100704.91;;;9.12;71.97
76853;BME280;65825;52.232;10.566;2024-02-14T03:50:45;100694.34;;;9.46;72.46
76853;BME280;65825;52.232;10.566;2024-02-14T03:53:10;100699.69;;;9.44;72.76
76853;BME280;65825;52.232;10.566;2024-02-14T03:55:40;100695.47;;;9.37;74.18
76853;BME280;65825;52.232;10.566;2024-02-14T03:58:06;100701.31;;;9.48;73.97
76853;BME280;65825;52.232;10.566;2024-02-14T04:00:33;100694.34;;;9.78;72.31
76853;BME280;65825;52.232;10.566;2024-02-14T04:03:01;100684.84;;;9.08;74.32
76853;BME280;65825;52.232;10.566;2024-02-14T04:05:27;100685.69;;;8.74;75.60
76853;BME280;65825;52.232;10.566;2024-02-14T04:07:54;100688.56;;;8.65;77.78
76853;BME280;65825;52.232;10.566;2024-02-14T04:10:20;100683.00;;;9.10;76.08
76853;BME280;65825;52.232;10.566;2024-02-14T04:12:45;100681.94;;;9.17;75.39
76853;BME280;65825;52.232;10.566;2024-02-14T04:15:11;100688.28;;;9.42;75.38
76853;BME280;65825;52.232;10.566;2024-02-14T04:17:36;100683.28;;;9.33;75.10
76853;BME280;65825;52.232;10.566;2024-02-14T04:20:02;100676.53;;;9.23;75.14
76853;BME280;65825;52.232;10.566;2024-02-14T04:22:27;100681.16;;;9.46;74.95
76853;BME280;65825;52.232;10.566;2024-02-14T04:24:53;100668.31;;;9.35;74.91
76853;BME280;65825;52.232;10.566;2024-02-14T04:27:18;100671.84;;;9.34;74.45
76853;BME280;65825;52.232;10.566;2024-02-14T04:29:47;100673.97;;;9.20;74.06
76853;BME280;65825;52.232;10.566;2024-02-14T04:32:13;100670.22;;;9.29;74.43
76853;BME280;65825;52.232;10.566;2024-02-14T04:34:38;100672.50;;;8.75;75.56
76853;BME280;65825;52.232;10.566;2024-02-14T04:37:05;100660.66;;;9.25;74.60
76853;BME280;65825;52.232;10.566;2024-02-14T04:39:38;100666.44;;;9.07;75.08
76853;BME280;65825;52.232;10.566;2024-02-14T04:42:04;100662.13;;;9.04;75.57
76853;BME280;65825;52.232;10.566;2024-02-14T04:44:30;100650.47;;;9.13;76.26
76853;BME280;65825;52.232;10.566;2024-02-14T04:46:56;100646.84;;;9.17;74.87
76853;BME280;65825;52.232;10.566;2024-02-14T04:49:23;100645.78;;;8.90;75.16
76853;BME280;65825;52.232;10.566;2024-02-14T04:51:48;100652.16;;;8.82;74.10
76853;BME280;65825;52.232;10.566;2024-02-14T04:54:13;100642.56;;;8.79;74.08
76853;BME280;65825;52.232;10.566;2024-02-14T04:56:41;100634.91;;;8.70;74.65
76853;BME280;65825;52.232;10.566;2024-02-14T04:59:07;100636.88;;;8.62;74.93
76853;BME280;65825;52.232;10.566;2024-02-14T05:01:34;100637.06;;;8.90;74.46
76853;BME280;65825;52.232;10.566;2024-02-14T05:03:59;100625.22;;;8.72;74.58
76853;BME280;65825;52.232;10.566;2024-02-14T05:06:24;100624.88;;;8.86;74.39
76853;BME280;65825;52.232;10.566;2024-02-14T05:08:49;100615.78;;;8.97;74.58
76853;BME280;65825;52.232;10.566;2024-02-14T05:11:16;100627.47;;;8.87;73.91
76853;BME280;65825;52.232;10.566;2024-02-14T05:13:42;100617.47;;;9.00;74.01
76853;BME280;65825;52.232;10.566;2024-02-14T05:16:07;100625.84;;;9.14;73.50
76853;BME280;65825;52.232;10.566;2024-02-14T05:18:36;100633.78;;;8.79;74.56
76853;BME280;65825;52.232;10.566;2024-02-14T05:21:05;100624.13;;;8.81;75.34
76853;BME280;65825;52.232;10.566;2024-02-14T05:23:30;100625.44;;;8.97;74.38
76853;BME280;65825;52.232;10.566;2024-02-14T05:25:55;100627.75;;;8.75;74.81
76853;BME280;65825;52.232;10.566;2024-02-14T05:28:21;100627.59;;;9.15;74.01
76853;BME280;65825;52.232;10.566;2024-02-14T05:30:46;100631.28;;;9.08;74.77
76853;BME280;65825;52.232;10.566;2024-02-14T05:33:11;100637.38;;;9.10;74.80
76853;BME280;65825;52.232;10.566;2024-02-14T05:35:36;100632.53;;;9.27;74.11
76853;BME280;65825;52.232;10.566;2024-02-14T05:38:02;100631.50;;;9.00;74.38
76853;BME280;65825;52.232;10.566;2024-02-14T05:40:29;100640.31;;;8.99;75.01
76853;BME280;65825;52.232;10.566;2024-02-14T05:42:54;100623.34;;;9.09;75.85
76853;BME280;65825;52.232;10.566;2024-02-14T05:45:21;100624.88;;;9.18;75.39
76853;BME280;65825;52.232;10.566;2024-02-14T05:47:46;100627.41;;;8.89;76.33
76853;BME280;65825;52.232;10.566;2024-02-14T05:50:11;100623.91;;;9.52;77.86
76853;BME280;65825;52.232;10.566;2024-02-14T05:52:38;100625.63;;;9.84;75.29
76853;BME280;65825;52.232;10.566;2024-02-14T05:55:04;100617.94;;;10.05;75.20
76853;BME280;65825;52.232;10.566;2024-02-14T05:57:30;100624.13;;;9.45;71.93
76853;BME280;65825;52.232;10.566;2024-02-14T05:59:55;100613.84;;;9.66;72.31
76853;BME280;65825;52.232;10.566;2024-02-14T06:02:20;100621.88;;;9.91;72.81
76853;BME280;65825;52.232;10.566;2024-02-14T06:04:49;100620.81;;;9.67;71.70
76853;BME280;65825;52.232;10.566;2024-02-14T06:07:18;100627.34;;;9.24;74.10
76853;BME280;65825;52.232;10.566;2024-02-14T06:09:43;100619.47;;;9.22;73.87
76853;BME280;65825;52.232;10.566;2024-02-14T06:12:08;100624.72;;;9.24;73.97
76853;BME280;65825;52.232;10.566;2024-02-14T06:14:34;100617.47;;;9.00;74.82
76853;BME280;65825;52.232;10.566;2024-02-14T06:17:00;100615.25;;;9.17;74.29
76853;BME280;65825;52.232;10.566;2024-02-14T06:19:28;100613.31;;;9.23;74.98
76853;BME280;65825;52.232;10.566;2024-02-14T06:21:53;100620.06;;;9.01;75.26
76853;BME280;65825;52.232;10.566;2024-02-14T06:24:19;100607.75;;;9.02;75.32
76853;BME280;65825;52.232;10.566;2024-02-14T06:26:45;100616.06;;;9.19;74.93
76853;BME280;65825;52.232;10.566;2024-02-14T06:29:10;100616.91;;;9.21;74.66
76853;BME280;65825;52.232;10.566;2024-02-14T06:31:36;100617.16;;;9.12;74.70
76853;BME280;65825;52.232;10.566;2024-02-14T06:34:01;100618.59;;;9.23;74.83
76853;BME280;65825;52.232;10.566;2024-02-14T06:36:26;100611.00;;;9.11;75.13
76853;BME280;65825;52.232;10.566;2024-02-14T06:38:52;100623.31;;;9.11;74.66
76853;BME280;65825;52.232;10.566;2024-02-14T06:41:18;100610.84;;;9.17;73.98
76853;BME280;65825;52.232;10.566;2024-02-14T06:43:45;100615.47;;;9.09;73.35
76853;BME280;65825;52.232;10.566;2024-02-14T06:46:10;100613.47;;;9.17;73.86
76853;BME280;65825;52.232;10.566;2024-02-14T06:48:35;100615.69;;;9.32;74.16
76853;BME280;65825;52.232;10.566;2024-02-14T06:51:01;100618.09;;;9.40;74.31
76853;BME280;65825;52.232;10.566;2024-02-14T06:53:26;100621.97;;;9.28;74.46
76853;BME280;65825;52.232;10.566;2024-02-14T06:55:52;100628.22;;;9.24;74.58
76853;BME280;65825;52.232;10.566;2024-02-14T06:58:17;100633.72;;;9.15;75.33
76853;BME280;65825;52.232;10.566;2024-02-14T07:00:43;100637.53;;;9.36;75.16
76853;BME280;65825;52.232;10.566;2024-02-14T07:03:09;100632.34;;;9.34;75.36
76853;BME280;65825;52.232;10.566;2024-02-14T07:05:34;100638.50;;;9.33;74.93
76853;BME280;65825;52.232;10.566;2024-02-14T07:08:00;100636.88;;;9.29;74.88
76853;BME280;65825;52.232;10.566;2024-02-14T07:10:25;100622.94;;;9.55;74.38
76853;BME280;65825;52.232;10.566;2024-02-14T07:12:51;100642.56;;;9.45;75.03
76853;BME280;65825;52.232;10.566;2024-02-14T07:15:16;100639.88;;;9.46;76.11
76853;BME280;65825;52.232;10.566;2024-02-14T07:17:42;100639.06;;;9.44;75.96
76853;BME280;65825;52.232;10.566;2024-02-14T07:20:08;100648.88;;;9.39;76.19
76853;BME280;65825;52.232;10.566;2024-02-14T07:22:35;100646.41;;;9.33;75.84
76853;BME280;65825;52.232;10.566;2024-02-14T07:25:01;100664.81;;;9.65;76.83
76853;BME280;65825;52.232;10.566;2024-02-14T07:27:26;100644.78;;;9.60;77.39
76853;BME280;65825;52.232;10.566;2024-02-14T07:29:52;100647.63;;;9.52;77.54
76853;BME280;65825;52.232;10.566;2024-02-14T07:32:17;100652.84;;;9.23;77.85
76853;BME280;65825;52.232;10.566;2024-02-14T07:34:43;100659.03;;;9.53;78.44
76853;BME280;65825;52.232;10.566;2024-02-14T07:37:09;100668.00;;;9.46;77.62
76853;BME280;65825;52.232;10.566;2024-02-14T07:39:34;100656.03;;;9.34;78.53
76853;BME280;65825;52.232;10.566;2024-02-14T07:42:02;100651.88;;;9.58;77.32
76853;BME280;65825;52.232;10.566;2024-02-14T07:44:28;100645.81;;;9.54;77.97
76853;BME280;65825;52.232;10.566;2024-02-14T07:46:53;100657.88;;;9.63;78.29
76853;BME280;65825;52.232;10.566;2024-02-14T07:49:19;100656.13;;;9.92;78.00
76853;BME280;65825;52.232;10.566;2024-02-14T07:51:45;100656.81;;;9.99;77.45
76853;BME280;65825;52.232;10.566;2024-02-14T07:54:10;100655.56;;;9.81;77.54
76853;BME280;65825;52.232;10.566;2024-02-14T07:56:36;100653.16;;;9.74;78.00
76853;BME280;65825;52.232;10.566;2024-02-14T07:59:01;100651.09;;;9.83;78.09
76853;BME280;65825;52.232;10.566;2024-02-14T08:01:27;100651.72;;;9.62;79.52
76853;BME280;65825;52.232;10.566;2024-02-14T08:03:53;100647.00;;;9.73;79.59
76853;BME280;65825;52.232;10.566;2024-02-14T08:06:19;100646.81;;;9.79;79.75
76853;BME280;65825;52.232;10.566;2024-02-14T08:08:45;100653.38;;;9.66;80.09
76853;BME280;65825;52.232;10.566;2024-02-14T08:11:10;100641.47;;;9.82;79.52
76853;BME280;65825;52.232;10.566;2024-02-14T08:13:36;100651.53;;;9.68;79.63
76853;BME280;65825;52.232;10.566;2024-02-14T08:16:04;100647.78;;;9.77;80.35
76853;BME280;65825;52.232;10.566;2024-02-14T08:18:30;100645.50;;;9.65;80.32
76853;BME280;65825;52.232;10.566;2024-02-14T08:20:55;100652.25;;;9.75;80.74
76853;BME280;65825;52.232;10.566;2024-02-14T08:23:24;100653.53;;;9.91;80.72
76853;BME280;65825;52.232;10.566;2024-02-14T08:25:49;100644.88;;;9.86;80.74
76853;BME280;65825;52.232;10.566;2024-02-14T08:28:14;100643.63;;;9.99;80.82
76853;BME280;65825;52.232;10.566;2024-02-14T08:30:40;100653.13;;;10.04;80.75
76853;BME280;65825;52.232;10.566;2024-02-14T08:33:05;100668.97;;;9.74;81.41
76853;BME280;65825;52.232;10.566;2024-02-14T08:35:31;100655.25;;;9.92;81.35
76853;BME280;65825;52.232;10.566;2024-02-14T08:37:56;100656.53;;;9.79;81.64
76853;BME280;65825;52.232;10.566;2024-02-14T08:40:22;100654.44;;;9.90;81.81
76853;BME280;65825;52.232;10.566;2024-02-14T08:42:47;100654.69;;;9.81;81.94
76853;BME280;65825;52.232;10.566;2024-02-14T08:45:12;100647.88;;;10.04;81.41
76853;BME280;65825;52.232;10.566;2024-02-14T08:47:38;100664.63;;;10.02;81.53
76853;BME280;65825;52.232;10.566;2024-02-14T08:50:04;100664.09;;;9.89;82.08
76853;BME280;65825;52.232;10.566;2024-02-14T08:52:29;100664.72;;;9.99;81.92
76853;BME280;65825;52.232;10.566;2024-02-14T08:54:55;100662.94;;;9.70;83.98
76853;BME280;65825;52.232;10.566;2024-02-14T08:57:20;100669.38;;;9.89;83.03
76853;BME280;65825;52.232;10.566;2024-02-14T08:59:46;100666.28;;;10.06;83.06
76853;BME280;65825;52.232;10.566;2024-02-14T09:02:13;100662.75;;;10.07;82.73
76853;BME280;65825;52.232;10.566;2024-02-14T09:04:39;100669.34;;;9.91;83.65
76853;BME280;65825;52.232;10.566;2024-02-14T09:07:06;100672.28;;;10.11;82.26
76853;BME280;65825;52.232;10.566;2024-02-14T09:09:32;100678.56;;;10.07;81.92
76853;BME280;65825;52.232;10.566;2024-02-14T09:11:58;100678.28;;;10.16;82.45
76853;BME280;65825;52.232;10.566;2024-02-14T09:14:28;100686.06;;;9.90;83.01
76853;BME280;65825;52.232;10.566;2024-02-14T09:16:53;100678.75;;;9.99;83.39
76853;BME280;65825;52.232;10.566;2024-02-14T09:19:18;100678.34;;;10.14;82.77
76853;BME280;65825;52.232;10.566;2024-02-14T09:21:44;100691.84;;;10.04;82.92
76853;BME280;65825;52.232;10.566;2024-02-14T09:24:09;100679.41;;;10.09;81.90
76853;BME280;65825;52.232;10.566;2024-02-14T09:26:35;100690.25;;;9.97;82.65
76853;BME280;65825;52.232;10.566;2024-02-14T09:29:00;100684.34;;;10.19;81.81
76853;BME280;65825;52.232;10.566;2024-02-14T09:31:25;100687.75;;;10.23;81.61
76853;BME280;65825;52.232;10.566;2024-02-14T09:33:51;100686.13;;;10.19;82.69
76853;BME280;65825;52.232;10.566;2024-02-14T09:36:21;100698.41;;;10.20;82.11
76853;BME280;65825;52.232;10.566;2024-02-14T09:38:47;100688.16;;;10.38;81.86
76853;BME280;65825;52.232;10.566;2024-02-14T09:43:43;100698.25;;;10.53;81.82
76853;BME280;65825;52.232;10.566;2024-02-14T09:46:12;100698.84;;;10.34;82.35
76853;BME280;65825;52.232;10.566;2024-02-14T09:48:38;100691.53;;;10.43;82.12
76853;BME280;65825;52.232;10.566;2024-02-14T09:51:05;100689.84;;;10.41;82.59
76853;BME280;65825;52.232;10.566;2024-02-14T09:53:32;100696.44;;;10.54;82.06
76853;BME280;65825;52.232;10.566;2024-02-14T09:55:59;100695.06;;;10.70;81.10
76853;BME280;65825;52.232;10.566;2024-02-14T09:58:25;100704.66;;;10.72;81.25
76853;BME280;65825;52.232;10.566;2024-02-14T10:00:52;100695.63;;;10.79;80.59
76853;BME280;65825;52.232;10.566;2024-02-14T10:03:17;100699.97;;;10.82;80.65
76853;BME280;65825;52.232;10.566;2024-02-14T10:05:43;100706.09;;;10.82;80.89
76853;BME280;65825;52.232;10.566;2024-02-14T10:08:09;100691.78;;;10.89;80.28
76853;BME280;65825;52.232;10.566;2024-02-14T10:10:37;100704.34;;;11.33;79.25
76853;BME280;65825;52.232;10.566;2024-02-14T10:13:06;100706.25;;;11.04;79.68
76853;BME280;65825;52.232;10.566;2024-02-14T10:15:33;100707.97;;;11.05;79.55
76853;BME280;65825;52.232;10.566;2024-02-14T10:17:59;100724.69;;;11.31;78.62
76853;BME280;65825;52.232;10.566;2024-02-14T10:20:25;100718.81;;;11.48;77.90
76853;BME280;65825;52.232;10.566;2024-02-14T10:22:51;100715.31;;;11.47;77.66
76853;BME280;65825;52.232;10.566;2024-02-14T10:25:20;100718.41;;;11.35;78.23
76853;BME280;65825;52.232;10.566;2024-02-14T10:27:46;100721.31;;;11.52;77.82
76853;BME280;65825;52.232;10.566;2024-02-14T10:30:13;100717.16;;;11.71;77.11
76853;BME280;65825;52.232;10.566;2024-02-14T10:32:39;100724.00;;;11.51;77.67
76853;BME280;65825;52.232;10.566;2024-02-14T10:35:13;100731.72;;;11.57;77.71
76853;BME280;65825;52.232;10.566;2024-02-14T10:37:39;100734.13;;;11.64;77.29
76853;BME280;65825;52.232;10.566;2024-02-14T10:40:05;100734.88;;;11.68;76.79
76853;BME280;65825;52.232;10.566;2024-02-14T10:42:31;100736.25;;;11.53;77.53
76853;BME280;65825;52.232;10.566;2024-02-14T10:44:57;100734.69;;;11.74;76.64
76853;BME280;65825;52.232;10.566;2024-02-14T10:47:25;100730.19;;;11.76;76.58
76853;BME280;65825;52.232;10.566;2024-02-14T10:49:57;100740.25;;;11.66;76.74
76853;BME280;65825;52.232;10.566;2024-02-14T10:52:25;100735.47;;;11.76;76.81
76853;BME280;65825;52.232;10.566;2024-02-14T10:54:56;100727.31;;;11.82;76.87
76853;BME280;65825;52.232;10.566;2024-02-14T10:57:25;100734.06;;;11.90;76.50
76853;BME280;65825;52.232;10.566;2024-02-14T10:59:51;100732.53;;;12.54;73.73
76853;BME280;65825;52.232;10.566;2024-02-14T11:02:18;100738.34;;;12.17;74.45
76853;BME280;65825;52.232;10.566;2024-02-14T11:04:45;100736.19;;;12.04;74.88
76853;BME280;65825;52.232;10.566;2024-02-14T11:07:10;100734.03;;;12.38;74.64
76853;BME280;65825;52.232;10.566;2024-02-14T11:09:37;100735.06;;;12.34;74.55
76853;BME280;65825;52.232;10.566;2024-02-14T11:12:06;100747.84;;;12.23;74.65
76853;BME280;65825;52.232;10.566;2024-02-14T11:14:32;100745.06;;;12.49;73.82
76853;BME280;65825;52.232;10.566;2024-02-14T11:17:04;100739.72;;;12.72;73.74
76853;BME280;65825;52.232;10.566;2024-02-14T11:19:33;100741.47;;;12.73;72.78
76853;BME280;65825;52.232;10.566;2024-02-14T11:22:10;100746.56;;;13.00;72.21
76853;BME280;65825;52.232;10.566;2024-02-14T11:24:37;100747.22;;;13.05;71.92
76853;BME280;65825;52.232;10.566;2024-02-14T11:27:02;100746.34;;;13.26;71.39
76853;BME280;65825;52.232;10.566;2024-02-14T11:29:31;100757.75;;;12.85;71.74
76853;BME280;65825;52.232;10.566;2024-02-14T11:32:00;100763.72;;;12.69;72.45
76853;BME280;65825;52.232;10.566;2024-02-14T11:34:27;100757.06;;;12.80;72.88
76853;BME280;65825;52.232;10.566;2024-02-14T11:36:53;100754.13;;;12.88;72.23
76853;BME280;65825;52.232;10.566;2024-02-14T11:39:20;100761.59;;;12.77;72.46
76853;BME280;65825;52.232;10.566;2024-02-14T11:41:45;100755.53;;;12.75;73.29
76853;BME280;65825;52.232;10.566;2024-02-14T11:44:11;100757.34;;;12.96;72.26
76853;BME280;65825;52.232;10.566;2024-02-14T11:46:37;100760.03;;;12.94;72.10
76853;BME280;65825;52.232;10.566;2024-02-14T11:49:04;100768.75;;;12.75;72.65
76853;BME280;65825;52.232;10.566;2024-02-14T11:51:30;100771.78;;;12.87;72.36
76853;BME280;65825;52.232;10.566;2024-02-14T11:53:57;100766.31;;;12.92;71.70
76853;BME280;65825;52.232;10.566;2024-02-14T11:56:30;100774.81;;;13.01;72.14
76853;BME280;65825;52.232;10.566;2024-02-14T11:58:59;100775.84;;;12.97;71.93
76853;BME280;65825;52.232;10.566;2024-02-14T12:01:25;100765.56;;;12.88;71.42
76853;BME280;65825;52.232;10.566;2024-02-14T12:03:51;100778.06;;;13.29;71.71
76853;BME280;65825;52.232;10.566;2024-02-14T12:06:17;100775.41;;;13.08;70.96
76853;BME280;65825;52.232;10.566;2024-02-14T12:08:43;100777.06;;;13.10;71.41
76853;BME280;65825;52.232;10.566;2024-02-14T12:11:08;100774.03;;;12.98;71.72
76853;BME280;65825;52.232;10.566;2024-02-14T12:13:34;100779.81;;;13.09;71.60
76853;BME280;65825;52.232;10.566;2024-02-14T12:16:03;100783.56;;;13.25;70.42
76853;BME280;65825;52.232;10.566;2024-02-14T12:18:28;100767.63;;;14.06;68.90
76853;BME280;65825;52.232;10.566;2024-02-14T12:21:03;100775.03;;;14.57;67.33
76853;BME280;65825;52.232;10.566;2024-02-14T12:23:29;100772.47;;;13.77;68.52
76853;BME280;65825;52.232;10.566;2024-02-14T12:26:01;100770.00;;;13.72;68.94
76853;BME280;65825;52.232;10.566;2024-02-14T12:28:30;100779.38;;;13.81;68.52
76853;BME280;65825;52.232;10.566;2024-02-14T12:30:57;100785.72;;;13.57;69.32
76853;BME280;65825;52.232;10.566;2024-02-14T12:33:23;100790.34;;;13.52;69.70
76853;BME280;65825;52.232;10.566;2024-02-14T12:35:50;100791.38;;;13.28;69.88
76853;BME280;65825;52.232;10.566;2024-02-14T12:38:17;100797.97;;;12.96;71.65
76853;BME280;65825;52.232;10.566;2024-02-14T12:40:43;100790.72;;;13.01;72.00
76853;BME280;65825;52.232;10.566;2024-02-14T12:43:09;100800.53;;;12.98;71.73
76853;BME280;65825;52.232;10.566;2024-02-14T12:45:36;100797.38;;;12.88;72.07